Time;durP1;ratioP1;P1;durP2;ratioP2;P2;SDS_P1;SDS_P2;PMS_P1;PMS_P2;Temp;Humidity;BMP_temperature;BMP_pressure;BME280_temperature;BME280_humidity;BME280_pressure;Samples;Min_cycle;Max_cycle;Signal;HPM_P1;HPM_P2
2021/08/07 00:01:33;;;;;;;9.45;4.80;;;538.10;2406.40;;;;;;5003603;28;20029;-78
2021/08/07 00:03:58;;;;;;;6.32;4.50;;;538.10;2406.40;;;;;;5003567;28;20394;-78
2021/08/07 00:06:24;;;;;;;6.82;3.78;;;538.10;2406.40;;;;;;5011381;28;20042;-78
2021/08/07 00:08:51;;;;;;;8.85;4.97;;;538.00;2406.40;;;;;;5010924;28;20030;-78
2021/08/07 00:11:17;;;;;;;7.28;4.75;;;537.90;2406.40;;;;;;5010750;28;20044;-78
2021/08/07 00:13:43;;;;;;;7.60;4.38;;;537.80;2406.40;;;;;;5010696;28;20460;-78
2021/08/07 00:16:09;;;;;;;8.40;4.10;;;537.90;2406.40;;;;;;5011299;28;20496;-78
2021/08/07 00:18:35;;;;;;;7.93;4.13;;;512.90;2380.80;;;;;;5010094;28;20026;-78
2021/08/07 00:21:02;;;;;;;8.93;4.32;;;537.70;2406.40;;;;;;5012048;28;20048;-78
2021/08/07 00:23:27;;;;;;;5.93;4.35;;;537.60;2406.40;;;;;;5012975;28;20508;-78
2021/08/07 00:25:53;;;;;;;5.75;3.83;;;537.70;2406.40;;;;;;5012262;28;20117;-79
2021/08/07 00:28:19;;;;;;;5.85;4.40;;;537.70;2406.40;;;;;;5010508;28;20056;-79
2021/08/07 00:30:45;;;;;;;5.72;3.83;;;537.80;2406.40;;;;;;5014602;28;20826;-79
2021/08/07 00:33:11;;;;;;;5.28;3.03;;;537.90;2406.40;;;;;;5009647;28;20030;-78
2021/08/07 00:35:37;;;;;;;5.63;3.97;;;537.90;2406.40;;;;;;5017607;28;20026;-78
2021/08/07 00:38:02;;;;;;;7.22;4.40;;;537.90;2406.40;;;;;;5011476;28;20374;-79
2021/08/07 00:40:28;;;;;;;5.70;3.53;;;537.90;2406.40;;;;;;5010603;28;20100;-79
2021/08/07 00:42:54;;;;;;;6.35;4.18;;;537.80;2406.40;;;;;;5021948;28;20030;-79
2021/08/07 00:45:20;;;;;;;6.85;4.30;;;537.80;2406.40;;;;;;5016547;28;20049;-80
2021/08/07 00:47:45;;;;;;;10.05;5.00;;;537.80;2406.40;;;;;;5011957;28;20068;-79
2021/08/07 00:50:12;;;;;;;9.68;5.40;;;537.70;2406.40;;;;;;5012571;28;20029;-79
2021/08/07 00:52:37;;;;;;;8.88;5.43;;;537.60;2406.40;;;;;;5015625;28;20041;-78
2021/08/07 00:55:04;;;;;;;8.85;6.30;;;537.60;2406.40;;;;;;5010869;28;20500;-79
2021/08/07 00:57:31;;;;;;;10.70;6.13;;;537.60;2406.40;;;;;;5014670;28;20022;-79
2021/08/07 00:59:57;;;;;;;8.32;4.93;;;537.60;2406.40;;;;;;5010655;28;20045;-80
2021/08/07 01:02:25;;;;;;;7.90;4.82;;;537.60;2406.40;;;;;;5012643;28;20030;-79
2021/08/07 01:05:00;;;;;;;8.18;5.18;;;537.70;2406.40;;;;;;5006756;28;20054;-79
2021/08/07 01:07:38;;;;;;;8.02;5.55;;;537.70;2406.40;;;;;;5013414;28;20103;-78
2021/08/07 01:10:27;;;;;;;7.53;5.43;;;537.70;2406.40;;;;;;5004523;28;20034;-79
2021/08/07 01:13:02;;;;;;;7.15;4.57;;;537.80;2406.40;;;;;;5014543;28;20018;-79
2021/08/07 01:15:30;;;;;;;5.97;4.78;;;537.80;2406.40;;;;;;5007117;28;20034;-78
2021/08/07 01:17:58;;;;;;;6.57;4.57;;;537.80;2406.40;;;;;;5010633;28;20030;-78
2021/08/07 01:20:34;;;;;;;7.13;4.57;;;537.80;2406.40;;;;;;5014472;28;20068;-78
2021/08/07 01:23:03;;;;;;;6.50;4.47;;;537.70;2406.40;;;;;;5011497;28;20096;-78
2021/08/07 01:25:43;;;;;;;5.93;4.32;;;537.80;2406.40;;;;;;5015983;28;20018;-79
2021/08/07 01:28:09;;;;;;;5.82;3.88;;;537.80;2406.40;;;;;;5007716;28;20041;-78
2021/08/07 01:30:36;;;;;;;7.82;3.78;;;537.80;2406.40;;;;;;5012046;28;20522;-79
2021/08/07 01:33:03;;;;;;;5.13;3.40;;;537.80;2406.40;;;;;;5009071;28;20034;-78
2021/08/07 01:35:29;;;;;;;7.97;3.85;;;537.80;2406.40;;;;;;5010898;28;20034;-78
2021/08/07 01:37:55;;;;;;;5.85;4.30;;;537.60;2406.40;;;;;;5014679;28;20033;-78
2021/08/07 01:40:20;;;;;;;7.93;3.53;;;537.60;2406.40;;;;;;5010135;28;20029;-77
2021/08/07 01:42:46;;;;;;;4.68;3.20;;;537.70;2406.40;;;;;;5014600;28;20456;-80
2021/08/07 01:45:12;;;;;;;6.20;4.25;;;537.60;2406.40;;;;;;5012187;28;20040;-78
2021/08/07 01:47:50;;;;;;;5.68;4.03;;;537.60;2406.40;;;;;;5009702;28;20112;-78
2021/08/07 01:50:35;;;;;;;7.35;4.30;;;512.90;2380.80;;;;;;5014275;28;20042;-79
2021/08/07 01:53:08;;;;;;;6.32;3.53;;;512.90;2380.80;;;;;;5000806;28;20116;-78
2021/08/07 01:55:48;;;;;;;7.97;4.22;;;512.90;2380.80;;;;;;5012077;28;20503;-78
2021/08/07 01:58:38;;;;;;;5.47;4.10;;;512.90;2380.80;;;;;;5011194;28;20057;-78
2021/08/07 02:01:04;;;;;;;4.68;3.70;;;512.90;2380.80;;;;;;5010898;28;20034;-79
2021/08/07 02:03:33;;;;;;;6.65;3.80;;;537.60;2406.40;;;;;;5009563;28;20053;-78
2021/08/07 02:06:00;;;;;;;8.43;4.68;;;537.60;2406.40;;;;;;5008878;28;20049;-79
2021/08/07 02:08:25;;;;;;;6.10;3.83;;;537.60;2406.40;;;;;;5008030;28;20025;-79
2021/08/07 02:10:51;;;;;;;5.15;4.18;;;537.60;2406.40;;;;;;5011345;28;20076;-78
2021/08/07 02:13:20;;;;;;;5.95;4.45;;;512.90;2380.80;;;;;;5009839;28;20044;-78
2021/08/07 02:15:51;;;;;;;6.03;5.00;;;512.90;2380.80;;;;;;5010685;28;20405;-78
2021/08/07 02:18:20;;;;;;;7.60;4.70;;;512.90;2380.80;;;;;;5011382;28;20033;-78
2021/08/07 02:20:47;;;;;;;7.53;5.28;;;512.80;2380.80;;;;;;5009186;28;20029;-77
2021/08/07 02:23:17;;;;;;;4.95;4.20;;;512.70;2380.80;;;;;;5015317;28;20026;-79
2021/08/07 02:25:46;;;;;;;5.75;4.68;;;512.70;2380.80;;;;;;5009147;28;20026;-79
2021/08/07 02:28:13;;;;;;;7.55;4.82;;;512.80;2380.80;;;;;;5007332;28;20041;-79
2021/08/07 02:30:40;;;;;;;5.90;4.20;;;512.80;2380.80;;;;;;5010406;28;20052;-79
2021/08/07 02:33:07;;;;;;;6.07;4.03;;;512.70;2380.80;;;;;;5009845;28;20473;-78
2021/08/07 02:35:35;;;;;;;8.45;4.65;;;512.70;2380.80;;;;;;5008036;28;20136;-78
2021/08/07 02:38:02;;;;;;;8.23;4.80;;;512.70;2380.80;;;;;;5009825;28;20026;-78
2021/08/07 02:40:29;;;;;;;6.50;4.05;;;512.70;2380.80;;;;;;5016028;28;20107;-78
2021/08/07 02:42:57;;;;;;;9.93;4.00;;;512.60;2380.80;;;;;;5013629;28;20064;-77
2021/08/07 02:45:23;;;;;;;4.75;3.88;;;512.60;2380.80;;;;;;5013337;28;20034;-79
2021/08/07 02:47:49;;;;;;;5.20;3.95;;;512.50;2380.80;;;;;;5014639;28;20029;-78
2021/08/07 02:50:16;;;;;;;9.02;5.40;;;512.60;2380.80;;;;;;5021358;28;20029;-78
2021/08/07 02:52:44;;;;;;;8.07;4.75;;;512.60;2380.80;;;;;;5016551;28;20485;-78
2021/08/07 02:55:09;;;;;;;7.50;3.90;;;512.50;2380.80;;;;;;5022250;28;20033;-78
2021/08/07 02:57:35;;;;;;;8.65;4.38;;;512.50;2380.80;;;;;;5026234;28;20499;-78
2021/08/07 03:00:02;;;;;;;5.95;4.43;;;512.50;2380.80;;;;;;5014410;28;20030;-77
2021/08/07 03:02:28;;;;;;;5.82;3.85;;;512.50;2380.80;;;;;;5025052;28;20052;-78
2021/08/07 03:04:54;;;;;;;5.97;4.65;;;512.50;2380.80;;;;;;5020137;28;20074;-78
2021/08/07 03:07:19;;;;;;;7.28;4.72;;;512.50;2380.80;;;;;;5022716;28;20116;-77
2021/08/07 03:09:46;;;;;;;8.43;5.25;;;512.60;2380.80;;;;;;5022870;28;20033;-78
2021/08/07 03:12:12;;;;;;;7.43;4.90;;;512.40;2380.80;;;;;;5021006;28;20022;-78
2021/08/07 03:14:38;;;;;;;9.48;4.72;;;512.40;2380.80;;;;;;5017403;28;20033;-79
2021/08/07 03:17:04;;;;;;;9.32;5.30;;;512.30;2380.80;;;;;;5021060;28;20025;-79
2021/08/07 03:19:30;;;;;;;12.20;5.20;;;512.30;2380.80;;;;;;5017930;28;20021;-78
2021/08/07 03:21:56;;;;;;;7.07;5.22;;;512.30;2380.80;;;;;;5010001;28;20050;-78
2021/08/07 03:24:22;;;;;;;5.85;4.57;;;512.30;2380.80;;;;;;5010207;28;20073;-78
2021/08/07 03:26:48;;;;;;;10.70;5.20;;;512.30;2380.80;;;;;;5020346;28;20423;-78
2021/08/07 03:29:14;;;;;;;6.00;4.55;;;512.30;2380.80;;;;;;5022160;28;20061;-78
2021/08/07 03:31:40;;;;;;;6.97;4.60;;;512.30;2380.80;;;;;;5015565;28;20018;-79
2021/08/07 03:34:05;;;;;;;8.15;4.55;;;512.30;2380.80;;;;;;5011468;28;20026;-79
2021/08/07 03:36:31;;;;;;;6.13;4.80;;;512.30;2380.80;;;;;;5008194;28;20482;-79
2021/08/07 03:38:57;;;;;;;9.73;5.28;;;512.30;2380.80;;;;;;5014047;28;20030;-79
2021/08/07 03:41:23;;;;;;;12.73;6.63;;;512.30;2380.80;;;;;;5012290;28;20397;-79
2021/08/07 03:43:48;;;;;;;8.13;5.68;;;512.30;2380.80;;;;;;5005815;28;20037;-79
2021/08/07 03:46:14;;;;;;;16.70;6.20;;;512.30;2380.80;;;;;;5014855;28;20481;-78
2021/08/07 03:48:40;;;;;;;13.50;7.38;;;512.30;2380.80;;;;;;5012687;28;20021;-80
2021/08/07 03:51:05;;;;;;;9.48;5.93;;;512.30;2380.80;;;;;;5012504;28;20531;-80
2021/08/07 03:53:31;;;;;;;13.20;5.90;;;512.20;2380.80;;;;;;5013691;28;20022;-74
2021/08/07 03:55:57;;;;;;;9.38;6.50;;;512.30;2380.80;;;;;;5011824;28;20104;-74
2021/08/07 03:58:23;;;;;;;10.77;7.07;;;512.30;2380.80;;;;;;5011267;28;20066;-73
2021/08/07 04:00:48;;;;;;;13.93;8.43;;;512.30;2380.80;;;;;;5011753;28;20113;-73
2021/08/07 04:03:14;;;;;;;16.85;8.80;;;512.40;2380.80;;;;;;5012371;28;20491;-75
2021/08/07 04:05:40;;;;;;;14.32;9.60;;;512.50;2380.80;;;;;;5006196;28;20035;-73
2021/08/07 04:08:10;;;;;;;18.35;8.40;;;512.50;2380.80;;;;;;5005805;28;20076;-73
2021/08/07 04:10:37;;;;;;;12.57;7.88;;;512.60;2380.80;;;;;;5011945;28;20058;-73
2021/08/07 04:13:04;;;;;;;16.38;7.45;;;512.60;2380.80;;;;;;5007005;28;20053;-73
2021/08/07 04:15:30;;;;;;;13.05;8.48;;;512.70;2380.80;;;;;;5018218;28;20017;-74
2021/08/07 04:17:55;;;;;;;18.65;8.63;;;512.80;2380.80;;;;;;5015389;28;20021;-74
2021/08/07 04:20:21;;;;;;;13.48;8.02;;;512.90;2380.80;;;;;;5002813;28;20045;-73
2021/08/07 04:22:48;;;;;;;11.80;8.48;;;537.60;2406.40;;;;;;5007454;28;20034;-73
2021/08/07 04:25:13;;;;;;;14.15;8.77;;;537.70;2406.40;;;;;;5029442;28;20501;-74
2021/08/07 04:27:39;;;;;;;18.73;9.60;;;537.80;2406.40;;;;;;5009750;28;20037;-74
2021/08/07 04:30:07;;;;;;;15.20;8.30;;;537.90;2406.40;;;;;;5006890;28;20022;-74
2021/08/07 04:32:33;;;;;;;15.43;8.93;;;538.00;2406.40;;;;;;5016829;28;20028;-74
2021/08/07 04:34:59;;;;;;;13.45;9.27;;;538.00;2406.40;;;;;;5014892;28;20033;-73
2021/08/07 04:37:25;;;;;;;15.02;9.32;;;537.90;2406.40;;;;;;5015379;28;20022;-73
2021/08/07 04:39:51;;;;;;;13.80;9.38;;;537.90;2406.40;;;;;;5010904;28;20117;-73
2021/08/07 04:42:17;;;;;;;18.85;11.82;;;538.10;2406.40;;;;;;5013170;28;20029;-73
2021/08/07 04:44:43;;;;;;;26.55;13.27;;;538.30;2406.40;;;;;;5024230;28;20048;-74
2021/08/07 04:47:08;;;;;;;19.63;12.40;;;538.50;2406.40;;;;;;5024337;28;20053;-73
2021/08/07 04:49:34;;;;;;;24.30;12.52;;;563.20;2432.00;;;;;;5020436;28;20042;-73
2021/08/07 04:52:01;;;;;;;18.98;13.57;;;563.40;2432.00;;;;;;5014239;28;20028;-74
2021/08/07 04:54:27;;;;;;;20.65;13.25;;;563.50;2432.00;;;;;;5020464;28;20581;-75
2021/08/07 04:56:53;;;;;;;40.33;15.57;;;563.70;2432.00;;;;;;5009944;28;20038;-73
2021/08/07 04:59:19;;;;;;;36.40;26.50;;;563.80;2432.00;;;;;;5012278;28;20080;-73
2021/08/07 05:01:44;;;;;;;38.75;29.13;;;563.90;2432.00;;;;;;5011631;28;20034;-74
2021/08/07 05:04:10;;;;;;;56.58;38.63;;;564.10;2432.00;;;;;;5026093;28;20049;-73
2021/08/07 05:06:36;;;;;;;84.80;57.28;;;588.80;2432.00;;;;;;5017462;28;20109;-74
2021/08/07 05:09:03;;;;;;;56.28;40.70;;;589.00;2432.00;;;;;;5011898;28;20165;-74
2021/08/07 05:11:29;;;;;;;51.70;37.28;;;589.10;2432.00;;;;;;5004716;28;20117;-73
2021/08/07 05:13:55;;;;;;;54.67;34.35;;;589.30;2432.00;;;;;;5009416;28;20075;-73
2021/08/07 05:16:21;;;;;;;36.35;24.60;;;589.40;2432.00;;;;;;5007129;28;20026;-73
2021/08/07 05:18:47;;;;;;;16.88;12.68;;;589.50;2432.00;;;;;;5005818;28;20048;-73
2021/08/07 05:21:12;;;;;;;12.77;8.05;;;589.70;2432.00;;;;;;5010274;28;20417;-73
2021/08/07 05:23:38;;;;;;;14.38;9.25;;;614.40;2432.00;;;;;;5006429;28;20485;-74
2021/08/07 05:26:04;;;;;;;18.02;11.07;;;614.60;2432.00;;;;;;5023362;28;20054;-74
2021/08/07 05:28:29;;;;;;;20.95;17.80;;;614.80;2432.00;;;;;;5004791;28;20026;-74
2021/08/07 05:30:55;;;;;;;18.38;14.40;;;615.00;2432.00;;;;;;5007693;28;20559;-74
2021/08/07 05:33:21;;;;;;;14.40;10.30;;;615.20;2432.00;;;;;;5005558;28;20085;-74
2021/08/07 05:35:46;;;;;;;56.60;34.92;;;640.00;2432.00;;;;;;5003575;28;20026;-73
2021/08/07 05:38:12;;;;;;;31.63;18.73;;;640.10;2432.00;;;;;;5011483;28;20045;-74
2021/08/07 05:40:38;;;;;;;14.35;9.73;;;640.20;2432.00;;;;;;5005676;28;20026;-74
2021/08/07 05:43:04;;;;;;;58.08;36.67;;;640.50;2432.00;;;;;;5007134;28;20382;-74
2021/08/07 05:45:29;;;;;;;33.53;23.92;;;640.60;2432.00;;;;;;5045569;28;20481;-74
2021/08/07 05:47:55;;;;;;;49.63;35.42;;;640.80;2432.00;;;;;;5013305;28;20022;-74
2021/08/07 05:50:21;;;;;;;32.10;20.35;;;665.70;2432.00;;;;;;4996999;28;20014;-73
2021/08/07 05:52:46;;;;;;;10.80;7.00;;;665.80;2432.00;;;;;;4993824;28;20045;-74
2021/08/07 05:55:12;;;;;;;10.98;5.20;;;666.10;2432.00;;;;;;5008041;28;20060;-74
2021/08/07 05:57:38;;;;;;;16.65;11.57;;;666.20;2432.00;;;;;;5011571;28;20129;-73
2021/08/07 06:00:05;;;;;;;9.10;6.60;;;666.30;2432.00;;;;;;5010353;28;20030;-74
2021/08/07 06:02:32;;;;;;;10.15;5.90;;;666.50;2432.00;;;;;;5024819;28;20021;-74
2021/08/07 06:04:59;;;;;;;9.98;5.93;;;691.20;2432.00;;;;;;5010963;28;20042;-74
2021/08/07 06:07:25;;;;;;;13.90;5.15;;;666.50;2432.00;;;;;;5000613;28;20041;-74
2021/08/07 06:09:51;;;;;;;10.27;5.05;;;691.30;2432.00;;;;;;5020756;28;20037;-74
2021/08/07 06:12:17;;;;;;;19.63;5.85;;;691.50;2432.00;;;;;;5010765;28;20093;-73
2021/08/07 06:14:43;;;;;;;37.15;20.83;;;691.60;2432.00;;;;;;5010770;28;20126;-73
2021/08/07 06:17:09;;;;;;;24.75;14.57;;;691.90;2432.00;;;;;;5012767;28;20076;-73
2021/08/07 06:19:35;;;;;;;26.13;15.95;;;716.80;2432.00;;;;;;5000968;28;20033;-73
2021/08/07 06:22:01;;;;;;;44.05;28.85;;;716.90;2432.00;;;;;;5003154;28;20064;-73
2021/08/07 06:24:27;;;;;;;14.05;9.30;;;717.00;2432.00;;;;;;5013608;28;20046;-73
2021/08/07 06:26:53;;;;;;;89.20;56.08;;;717.20;2432.00;;;;;;5014502;28;20119;-73
2021/08/07 06:29:19;;;;;;;34.72;24.02;;;717.20;2432.00;;;;;;5006141;28;20034;-73
2021/08/07 06:31:44;;;;;;;44.15;32.65;;;717.10;2432.00;;;;;;5013354;28;20124;-73
2021/08/07 06:34:10;;;;;;;15.35;9.30;;;717.10;2432.00;;;;;;5020269;28;20057;-73
2021/08/07 06:36:36;;;;;;;22.05;16.02;;;717.50;2432.00;;;;;;5014849;28;20048;-73
2021/08/07 06:39:03;;;;;;;21.40;13.98;;;717.70;2432.00;;;;;;5014708;28;20478;-73
2021/08/07 06:41:29;;;;;;;8.68;6.88;;;742.60;2432.00;;;;;;5015003;28;20029;-73
2021/08/07 06:43:55;;;;;;;9.88;8.18;;;742.60;2432.00;;;;;;5013330;28;20014;-74
2021/08/07 06:46:21;;;;;;;17.77;13.55;;;742.80;2380.80;;;;;;5013856;28;20030;-73
2021/08/07 06:48:47;;;;;;;28.13;22.60;;;742.60;2355.20;;;;;;5014464;28;20030;-74
2021/08/07 06:51:12;;;;;;;23.02;16.95;;;742.70;2406.40;;;;;;5014785;28;20040;-74
2021/08/07 06:53:38;;;;;;;5.93;5.28;;;743.00;2380.80;;;;;;5012931;28;20041;-74
2021/08/07 06:56:04;;;;;;;5.60;4.70;;;743.30;2355.20;;;;;;5014710;28;20033;-74
2021/08/07 06:58:30;;;;;;;10.27;6.03;;;768.00;2380.80;;;;;;5013867;28;20030;-74
2021/08/07 07:00:56;;;;;;;6.43;4.13;;;768.30;2355.20;;;;;;5019903;28;20028;-74
2021/08/07 07:03:21;;;;;;;6.07;3.75;;;768.50;2329.60;;;;;;5016405;28;20512;-74
2021/08/07 07:05:47;;;;;;;7.18;4.85;;;768.70;2252.80;;;;;;5016520;28;20025;-74
2021/08/07 07:08:13;;;;;;;4.93;3.80;;;793.60;2278.40;;;;;;5011492;28;20076;-74
2021/08/07 07:10:39;;;;;;;5.05;3.50;;;793.80;2227.20;;;;;;5017739;28;20030;-74
2021/08/07 07:13:06;;;;;;;7.43;3.17;;;794.00;2176.00;;;;;;5006458;28;20018;-75
2021/08/07 07:15:32;;;;;;;9.60;2.80;;;794.00;2176.00;;;;;;5016494;28;20081;-75
2021/08/07 07:17:58;;;;;;;5.90;3.22;;;794.20;2150.40;;;;;;5021124;28;20026;-74
2021/08/07 07:20:24;;;;;;;6.47;3.58;;;794.40;2099.20;;;;;;5008479;28;20097;-74
2021/08/07 07:22:50;;;;;;;9.45;4.35;;;794.30;2099.20;;;;;;5045627;28;20049;-74
2021/08/07 07:25:16;;;;;;;6.22;3.38;;;819.30;2048.00;;;;;;5010512;28;20062;-74
2021/08/07 07:27:43;;;;;;;5.38;2.78;;;819.20;2022.40;;;;;;5017772;28;20037;-74
2021/08/07 07:30:10;;;;;;;9.98;4.10;;;819.20;1996.80;;;;;;5011980;28;20032;-74
2021/08/07 07:32:36;;;;;;;8.93;3.72;;;819.30;1945.60;;;;;;5017289;28;20025;-74
2021/08/07 07:35:03;;;;;;;5.18;2.92;;;819.30;1945.60;;;;;;5027063;28;20100;-74
2021/08/07 07:37:29;;;;;;;3.30;2.60;;;819.20;1920.00;;;;;;5012261;28;20030;-75
2021/08/07 07:39:55;;;;;;;4.57;3.20;;;794.50;1894.40;;;;;;5004401;28;20507;-74
2021/08/07 07:42:23;;;;;;;7.95;2.92;;;794.50;1843.20;;;;;;5009518;28;20099;-74
2021/08/07 07:44:48;;;;;;;5.28;3.60;;;794.30;1894.40;;;;;;5012614;28;20030;-74
2021/08/07 07:47:14;;;;;;;5.03;3.00;;;794.30;1920.00;;;;;;5010243;28;20556;-74
2021/08/07 07:49:40;;;;;;;2.95;2.15;;;819.20;1894.40;;;;;;5013536;28;20097;-74
2021/08/07 07:52:06;;;;;;;5.93;3.42;;;794.50;1920.00;;;;;;5009509;28;20072;-74
2021/08/07 07:54:32;;;;;;;6.50;3.35;;;819.30;1843.20;;;;;;5014718;28;20034;-74
2021/08/07 07:56:58;;;;;;;7.13;3.67;;;819.50;1894.40;;;;;;5010846;28;20030;-75
2021/08/07 07:59:24;;;;;;;10.60;5.72;;;819.70;1894.40;;;;;;5021254;28;20083;-75
2021/08/07 08:01:50;;;;;;;8.65;4.38;;;819.80;1868.80;;;;;;5018163;28;20029;-75
2021/08/07 08:04:16;;;;;;;10.70;6.13;;;819.90;1868.80;;;;;;5011120;28;20385;-74
2021/08/07 08:06:42;;;;;;;6.68;4.65;;;844.80;1868.80;;;;;;5017858;28;20150;-74
2021/08/07 08:09:08;;;;;;;3.63;2.92;;;845.00;1868.80;;;;;;5012442;28;20033;-75
2021/08/07 08:11:33;;;;;;;5.22;2.90;;;820.10;1817.60;;;;;;5017010;28;20527;-75
2021/08/07 08:14:00;;;;;;;8.45;6.20;;;820.10;1817.60;;;;;;5016476;28;20049;-74
2021/08/07 08:16:27;;;;;;;8.73;6.95;;;845.00;1843.20;;;;;;5020758;28;20092;-74
2021/08/07 08:18:53;;;;;;;10.70;8.35;;;845.30;1792.00;;;;;;5015218;28;20052;-74
2021/08/07 08:21:19;;;;;;;15.52;11.60;;;845.40;1792.00;;;;;;5017596;28;20113;-74
2021/08/07 08:23:46;;;;;;;7.90;4.30;;;870.40;1715.20;;;;;;5017995;28;20068;-74
2021/08/07 08:26:13;;;;;;;6.22;4.25;;;870.60;1715.20;;;;;;5016958;28;20095;-75
2021/08/07 08:28:39;;;;;;;7.22;6.18;;;870.70;1664.00;;;;;;5015390;28;20568;-75
2021/08/07 08:31:06;;;;;;;9.82;6.78;;;870.80;1664.00;;;;;;5012180;28;20053;-75
2021/08/07 08:33:33;;;;;;;8.00;3.60;;;870.80;1638.40;;;;;;5015510;28;20026;-75
2021/08/07 08:36:00;;;;;;;5.00;2.40;;;870.90;1612.80;;;;;;5010863;28;20029;-75
2021/08/07 08:38:27;;;;;;;2.58;2.13;;;870.50;1664.00;;;;;;5012258;28;20018;-75
2021/08/07 08:40:58;;;;;;;5.05;2.38;;;870.40;1664.00;;;;;;5013371;28;20029;-75
2021/08/07 08:43:23;;;;;;;4.47;3.47;;;871.10;1638.40;;;;;;5011846;28;20079;-75
2021/08/07 08:45:49;;;;;;;5.07;2.85;;;871.10;1587.20;;;;;;5014641;28;20029;-75
2021/08/07 08:48:17;;;;;;;10.05;4.20;;;871.30;1561.60;;;;;;5012003;28;20045;-74
2021/08/07 08:50:47;;;;;;;4.78;3.08;;;896.20;1561.60;;;;;;5011185;28;20037;-75
2021/08/07 08:53:13;;;;;;;5.25;4.00;;;896.40;1510.40;;;;;;5012672;28;20112;-75
2021/08/07 08:55:39;;;;;;;5.05;2.80;;;896.50;1484.80;;;;;;5011188;28;20441;-75
2021/08/07 08:58:05;;;;;;;4.53;3.20;;;896.10;1510.40;;;;;;5010226;28;20029;-75
2021/08/07 09:00:32;;;;;;;3.67;2.28;;;896.50;1459.20;;;;;;5011780;28;20029;-74
2021/08/07 09:02:58;;;;;;;4.68;2.20;;;896.60;1459.20;;;;;;5010287;28;20029;-75
2021/08/07 09:05:24;;;;;;;2.88;2.15;;;921.70;1433.60;;;;;;5011193;28;20038;-75
2021/08/07 09:07:50;;;;;;;3.85;1.88;;;896.50;1408.00;;;;;;5012034;28;20389;-74
2021/08/07 09:10:20;;;;;;;5.10;2.13;;;896.70;1433.60;;;;;;5012744;28;20033;-75
2021/08/07 09:12:51;;;;;;;2.53;1.77;;;921.70;1459.20;;;;;;5011110;28;20018;-75
2021/08/07 09:15:31;;;;;;;3.22;1.90;;;922.10;1408.00;;;;;;5011030;28;20543;-74
2021/08/07 09:18:13;;;;;;;3.80;3.25;;;922.10;1408.00;;;;;;5010735;28;20093;-74
2021/08/07 09:20:40;;;;;;;7.25;3.72;;;922.10;1408.00;;;;;;5011677;28;20108;-74
2021/08/07 09:23:06;;;;;;;16.70;5.88;;;922.30;1408.00;;;;;;5009793;28;20045;-74
2021/08/07 09:25:40;;;;;;;11.57;5.55;;;922.40;1382.40;;;;;;5010401;28;20109;-74
2021/08/07 09:28:07;;;;;;;7.60;2.92;;;947.20;1331.20;;;;;;5009343;28;20030;-74
2021/08/07 09:30:42;;;;;;;11.93;5.72;;;947.20;1331.20;;;;;;5007884;28;20033;-75
2021/08/07 09:33:10;;;;;;;;;;;947.80;1305.60;;;;;;5010932;28;20037;-75
2021/08/07 09:35:40;;;;;;;4.55;2.67;;;947.70;1331.20;;;;;;5009189;28;19917;-75
2021/08/07 09:38:10;;;;;;;5.55;2.88;;;947.80;1280.00;;;;;;5008472;28;20029;-74
2021/08/07 09:40:45;;;;;;;5.55;3.85;;;947.90;1305.60;;;;;;5008318;28;20037;-74
2021/08/07 09:43:13;;;;;;;3.97;2.70;;;972.90;1331.20;;;;;;5011047;28;20040;-74
2021/08/07 09:45:39;;;;;;;3.22;2.53;;;973.10;1280.00;;;;;;5009232;28;20029;-74
2021/08/07 09:48:08;;;;;;;5.68;3.90;;;973.40;1254.40;;;;;;5008895;28;20026;-74
2021/08/07 09:50:34;;;;;;;4.45;2.67;;;973.70;1280.00;;;;;;5007568;28;20026;-74
2021/08/07 09:53:02;;;;;;;4.95;4.25;;;973.70;1280.00;;;;;;5010295;28;20075;-74
2021/08/07 09:55:29;;;;;;;6.93;5.45;;;998.50;1280.00;;;;;;5010040;28;20022;-74
2021/08/07 09:58:07;;;;;;;2.42;1.55;;;998.80;1254.40;;;;;;5009311;28;20060;-74
2021/08/07 10:00:38;;;;;;;3.13;2.08;;;998.50;1254.40;;;;;;5005813;28;20128;-74
2021/08/07 10:03:27;;;;;;;4.15;2.70;;;999.10;1228.80;;;;;;5009067;28;20505;-74
2021/08/07 10:05:53;;;;;;;6.35;5.15;;;999.10;1177.60;;;;;;5022105;28;20041;-74
2021/08/07 10:08:19;;;;;;;3.25;2.35;;;998.90;1203.20;;;;;;5010169;28;20025;-74
2021/08/07 10:10:48;;;;;;;7.07;5.95;;;998.40;1228.80;;;;;;5008555;28;20461;-76
2021/08/07 10:13:14;;;;;;;8.93;6.03;;;998.60;1203.20;;;;;;5002805;28;20050;-76
2021/08/07 10:15:42;;;;;;;4.05;2.75;;;998.90;1177.60;;;;;;5008858;28;20014;-76
2021/08/07 10:18:09;;;;;;;8.55;5.95;;;998.90;1177.60;;;;;;5006248;28;20354;-76
2021/08/07 10:20:37;;;;;;;3.15;2.63;;;999.10;1177.60;;;;;;5003532;28;20092;-75
2021/08/07 10:23:04;;;;;;;9.15;4.18;;;999.10;1177.60;;;;;;5010600;28;20121;-76
2021/08/07 10:25:31;;;;;;;7.40;4.40;;;1024.00;1177.60;;;;;;5016089;28;20037;-75
2021/08/07 10:27:59;;;;;;;4.25;2.13;;;1024.20;1152.00;;;;;;5005582;28;20030;-76
2021/08/07 10:30:28;;;;;;;4.88;3.42;;;999.30;1152.00;;;;;;5003241;28;20026;-75
2021/08/07 10:32:56;;;;;;;5.20;3.15;;;999.30;1177.60;;;;;;5013458;28;20026;-75
2021/08/07 10:35:25;;;;;;;4.60;2.78;;;1024.30;1075.20;;;;;;5017711;28;20105;-76
2021/08/07 10:37:54;;;;;;;5.90;3.47;;;1024.50;1100.80;;;;;;5027984;28;20033;-76
2021/08/07 10:40:20;;;;;;;4.68;2.20;;;1024.80;1075.20;;;;;;5002967;28;20082;-77
2021/08/07 10:42:46;;;;;;;4.55;1.50;;;1024.90;1075.20;;;;;;5009818;28;20412;-76
2021/08/07 10:45:13;;;;;;;6.68;4.15;;;1049.70;1075.20;;;;;;5016445;28;20456;-76
2021/08/07 10:47:47;;;;;;;6.50;4.28;;;1049.80;1100.80;;;;;;5007308;28;20030;-75
2021/08/07 10:50:25;;;;;;;5.05;4.00;;;1049.90;1075.20;;;;;;4996160;28;20033;-74
2021/08/07 10:52:52;;;;;;;6.55;3.13;;;1049.90;1075.20;;;;;;5010701;28;20033;-75
2021/08/07 10:55:48;;;;;;;3.70;2.85;;;1050.20;1075.20;;;;;;5009845;28;20035;-75
2021/08/07 10:58:44;;;;;;;6.70;3.35;;;1049.80;1075.20;;;;;;5015452;28;20029;-75
2021/08/07 11:01:25;;;;;;;;;;;1050.10;1049.60;;;;;;5029942;28;20025;-75
2021/08/07 11:04:03;;;;;;;8.23;4.65;;;1050.10;1049.60;;;;;;5019418;28;20462;-75
2021/08/07 11:06:38;;;;;;;4.00;2.35;;;1049.90;1049.60;;;;;;5014640;28;20116;-76
2021/08/07 11:09:28;;;;;;;4.93;3.75;;;1050.30;1049.60;;;;;;5011084;28;20382;-75
2021/08/07 11:12:23;;;;;;;3.80;1.80;;;1050.50;1049.60;;;;;;5012181;28;20018;-74
2021/08/07 11:14:50;;;;;;;14.70;13.30;;;1050.40;1049.60;;;;;;5011086;28;20034;-74
2021/08/07 11:17:16;;;;;;;7.03;6.03;;;1075.40;1049.60;;;;;;4995205;28;20053;-75
2021/08/07 11:19:49;;;;;;;4.43;3.58;;;1075.40;1024.00;;;;;;5007212;28;20081;-74
2021/08/07 11:22:34;;;;;;;25.17;20.52;;;1075.70;1024.00;;;;;;5011758;28;20038;-74
2021/08/07 11:25:01;;;;;;;15.80;12.23;;;1075.70;1024.00;;;;;;5021495;28;20453;-74
2021/08/07 11:27:48;;;;;;;6.22;3.60;;;1075.40;1049.60;;;;;;5012953;28;20499;-74
2021/08/07 11:30:33;;;;;;;7.72;6.95;;;1050.50;1049.60;;;;;;5000172;28;20065;-76
2021/08/07 11:33:00;;;;;;;5.50;4.03;;;1075.50;1049.60;;;;;;5012215;28;20061;-76
2021/08/07 11:35:32;;;;;;;11.43;9.93;;;1075.70;1024.00;;;;;;5012097;28;20116;-77
2021/08/07 11:38:06;;;;;;;9.50;8.35;;;1075.80;1024.00;;;;;;4994906;28;20095;-76
2021/08/07 11:40:52;;;;;;;4.28;3.25;;;1075.70;1024.00;;;;;;5010306;28;20112;-77
2021/08/07 11:43:32;;;;;;;3.78;2.08;;;1075.30;1024.00;;;;;;5012181;28;20025;-77
2021/08/07 11:45:59;;;;;;;3.53;2.40;;;1050.30;1024.00;;;;;;5011877;28;20101;-78
2021/08/07 11:48:27;;;;;;;10.30;7.45;;;1050.30;1049.60;;;;;;5012785;28;20093;-78
2021/08/07 11:50:54;;;;;;;8.88;7.63;;;1075.40;1024.00;;;;;;5006528;28;20046;-77
2021/08/07 11:53:23;;;;;;;8.07;6.38;;;1075.40;1024.00;;;;;;5028717;28;20049;-77
2021/08/07 11:55:58;;;;;;;5.25;2.67;;;1075.90;998.40;;;;;;5009071;28;20034;-77
2021/08/07 11:58:25;;;;;;;4.03;2.70;;;1076.00;998.40;;;;;;5021063;28;20033;-77
2021/08/07 12:00:57;;;;;;;3.60;2.80;;;1101.10;972.80;;;;;;5029270;28;20056;-77
2021/08/07 12:03:23;;;;;;;2.45;1.80;;;1100.80;998.40;;;;;;5027072;28;20825;-77
2021/08/07 12:05:56;;;;;;;6.55;4.55;;;1075.90;972.80;;;;;;5027126;28;20059;-77
2021/08/07 12:08:24;;;;;;;4.75;2.85;;;1100.80;998.40;;;;;;5032572;28;20040;-78
2021/08/07 12:10:54;;;;;;;3.40;2.70;;;1101.10;998.40;;;;;;5026342;28;20508;-78
2021/08/07 12:13:27;;;;;;;3.05;2.15;;;1100.90;998.40;;;;;;5024542;28;20030;-78
2021/08/07 12:16:17;;;;;;;4.78;2.72;;;1100.90;998.40;;;;;;5023617;28;20077;-77
2021/08/07 12:18:44;;;;;;;5.68;3.45;;;1101.30;998.40;;;;;;5010850;28;20117;-78